createdAt,value
2022-07-30T00:06:07.895Z,3.40
2022-07-30T00:11:11.990Z,3.53
2022-07-30T00:16:16.248Z,4.03
2022-07-30T00:21:20.324Z,2.87
2022-07-30T00:26:39.762Z,3.50
2022-07-30T00:31:43.940Z,4.30
2022-07-30T00:36:46.766Z,3.73
2022-07-30T00:41:57.153Z,3.73
2022-07-30T00:47:01.868Z,4.23
2022-07-30T00:52:32.971Z,3.97
2022-07-30T00:57:36.336Z,3.37
2022-07-30T01:02:40.809Z,3.60
2022-07-30T01:07:43.815Z,3.63
2022-07-30T01:12:46.916Z,3.63
2022-07-30T01:17:53.128Z,3.30
2022-07-30T01:23:00.855Z,3.20
2022-07-30T01:28:10.449Z,3.80
2022-07-30T01:33:15.907Z,4.73
2022-07-30T01:38:23.023Z,4.73
2022-07-30T01:43:28.063Z,4.20
2022-07-30T01:48:31.466Z,3.80
2022-07-30T01:53:38.001Z,3.20
2022-07-30T01:58:43.379Z,3.97
2022-07-30T02:03:56.994Z,4.33
2022-07-30T02:14:32.378Z,4.67
2022-07-30T02:19:41.933Z,5.13
2022-07-30T02:24:45.418Z,4.40
2022-07-30T02:29:49.967Z,3.73
2022-07-30T02:34:55.002Z,4.60
2022-07-30T02:40:05.015Z,3.80
2022-07-30T02:45:10.540Z,4.23
2022-07-30T02:50:14.013Z,6.17
2022-07-30T02:55:17.378Z,4.70
2022-07-30T03:00:22.398Z,4.47
2022-07-30T03:05:27.321Z,5.10
2022-07-30T03:10:31.877Z,5.33
2022-07-30T03:15:39.479Z,4.23
2022-07-30T03:20:45.977Z,4.80
2022-07-30T03:25:55.798Z,5.40
2022-07-30T03:31:00.185Z,4.93
2022-07-30T03:36:03.950Z,4.70
2022-07-30T03:41:07.923Z,5.53
2022-07-30T03:46:13.295Z,4.03
2022-07-30T03:51:19.549Z,4.57
2022-07-30T03:56:22.748Z,4.43
2022-07-30T04:01:47.221Z,4.17
2022-07-30T04:07:03.970Z,3.87
2022-07-30T04:12:07.530Z,3.73
2022-07-30T04:17:14.828Z,3.53
2022-07-30T04:22:21.397Z,4.03
2022-07-30T04:27:25.361Z,4.10
2022-07-30T04:32:29.784Z,4.03
2022-07-30T04:38:10.476Z,3.63
2022-07-30T04:43:13.435Z,4.03
2022-07-30T04:48:17.681Z,3.67
2022-07-30T04:53:39.382Z,3.73
2022-07-30T04:58:45.000Z,4.20
2022-07-30T05:03:50.880Z,4.37
2022-07-30T05:08:53.980Z,4.10
2022-07-30T05:13:57.294Z,3.80
2022-07-30T05:19:02.431Z,3.67
2022-07-30T05:24:11.408Z,4.00
2022-07-30T05:29:20.023Z,4.30
2022-07-30T05:34:50.097Z,4.83
2022-07-30T05:40:02.938Z,3.90
2022-07-30T05:45:26.668Z,3.80
2022-07-30T05:50:31.233Z,4.37
2022-07-30T05:55:35.451Z,3.40
2022-07-30T06:00:57.328Z,3.73
2022-07-30T06:06:06.062Z,3.00
2022-07-30T06:11:09.917Z,2.60
2022-07-30T06:16:15.539Z,2.43
2022-07-30T06:21:20.527Z,2.20
2022-07-30T06:26:40.646Z,3.30
2022-07-30T06:31:44.181Z,3.70
2022-07-30T06:36:49.888Z,2.60
2022-07-30T06:41:55.990Z,2.17
2022-07-30T06:47:07.416Z,2.13
2022-07-30T06:52:18.560Z,1.88
2022-07-30T06:57:25.904Z,1.27
2022-07-30T07:02:29.244Z,1.42
2022-07-30T07:07:58.252Z,0.80
2022-07-30T07:13:03.099Z,1.00
2022-07-30T07:18:06.718Z,1.00
2022-07-30T07:23:16.345Z,1.30
2022-07-30T07:28:23.598Z,1.55
2022-07-30T07:33:36.985Z,1.80
2022-07-30T07:38:41.260Z,1.02
2022-07-30T07:43:44.303Z,0.90
2022-07-30T07:48:51.722Z,1.40
2022-07-30T07:54:20.303Z,0.90
2022-07-30T07:59:30.993Z,1.40
2022-07-30T08:04:46.518Z,1.02
2022-07-30T08:10:09.590Z,1.27
2022-07-30T08:15:32.512Z,2.20
2022-07-30T08:21:05.419Z,0.80
2022-07-30T08:26:11.799Z,0.90
2022-07-30T08:31:14.750Z,1.05
2022-07-30T08:36:18.944Z,0.88
2022-07-30T08:41:28.241Z,1.00
2022-07-30T08:46:33.066Z,1.00
2022-07-30T08:52:02.416Z,0.98
2022-07-30T08:57:18.032Z,0.88
2022-07-30T09:02:27.871Z,1.15
2022-07-30T09:07:41.009Z,0.80
2022-07-30T09:12:50.607Z,0.82
2022-07-30T09:17:57.082Z,0.70
2022-07-30T09:23:03.888Z,0.65
2022-07-30T09:28:32.176Z,1.05
2022-07-30T09:33:50.033Z,1.13
2022-07-30T09:39:11.560Z,1.40
2022-07-30T09:44:41.258Z,0.80
2022-07-30T09:49:47.119Z,0.82
2022-07-30T10:00:23.492Z,1.15
2022-07-30T10:05:50.669Z,1.20
2022-07-30T10:10:56.235Z,1.38
2022-07-30T10:16:00.637Z,0.85
2022-07-30T10:21:10.589Z,0.65
2022-07-30T10:26:43.155Z,0.95
2022-07-30T10:32:06.913Z,0.73
2022-07-30T10:37:13.324Z,0.57
2022-07-30T10:42:25.866Z,0.70
2022-07-30T10:47:33.430Z,0.80
2022-07-30T10:52:46.184Z,0.80
2022-07-30T10:57:59.653Z,0.77
2022-07-30T11:03:22.050Z,0.93
2022-07-30T11:08:42.971Z,0.80
2022-07-30T11:13:57.380Z,0.70
2022-07-30T11:19:56.325Z,0.80
2022-07-30T11:24:45.642Z,1.27
2022-07-30T11:29:51.373Z,1.00
2022-07-30T11:35:13.350Z,0.82
2022-07-30T11:40:16.296Z,6.03
2022-07-30T11:45:30.415Z,0.90
2022-07-30T11:50:35.784Z,1.30
2022-07-30T11:55:39.946Z,1.50
2022-07-30T12:00:47.779Z,0.77
2022-07-30T12:05:53.485Z,0.95
2022-07-30T12:11:01.840Z,1.00
2022-07-30T12:16:10.559Z,0.80
2022-07-30T12:21:16.185Z,0.93
2022-07-30T12:26:22.820Z,0.88
2022-07-30T12:31:25.794Z,0.90
2022-07-30T12:36:31.837Z,1.10
2022-07-30T12:41:43.786Z,1.40
2022-07-30T12:46:46.626Z,1.13
2022-07-30T12:51:57.484Z,1.30
2022-07-30T12:57:05.786Z,1.00
2022-07-30T13:02:08.926Z,0.95
2022-07-30T13:07:19.554Z,1.25
2022-07-30T13:12:22.350Z,1.00
2022-07-30T13:17:33.896Z,1.20
2022-07-30T13:22:41.740Z,0.98
2022-07-30T13:27:44.758Z,1.30
2022-07-30T13:32:47.535Z,0.80
2022-07-30T13:37:51.644Z,0.77
2022-07-30T13:42:54.654Z,1.02
2022-07-30T13:47:58.912Z,0.95
2022-07-30T13:53:03.130Z,1.90
2022-07-30T13:58:09.564Z,1.05
2022-07-30T14:03:12.769Z,1.70
2022-07-30T14:08:17.022Z,1.55
2022-07-30T14:13:21.134Z,1.65
2022-07-30T14:18:24.352Z,1.90
2022-07-30T14:23:28.545Z,1.23
2022-07-30T14:28:31.386Z,1.88
2022-07-30T14:33:34.260Z,1.35
2022-07-30T14:38:39.893Z,1.63
2022-07-30T14:43:42.838Z,1.40
2022-07-30T14:48:47.571Z,1.13
2022-07-30T14:53:51.883Z,1.60
2022-07-30T14:58:55.073Z,1.67
2022-07-30T15:03:58.594Z,1.30
2022-07-30T15:09:02.769Z,2.13
2022-07-30T15:14:05.526Z,1.15
2022-07-30T15:19:13.948Z,1.30
2022-07-30T15:24:18.131Z,3.47
2022-07-30T15:29:24.079Z,1.58
2022-07-30T15:34:27.429Z,1.05
2022-07-30T15:39:33.064Z,1.48
2022-07-30T15:44:36.003Z,2.25
2022-07-30T15:49:41.319Z,1.27
2022-07-30T15:54:45.792Z,1.27
2022-07-30T15:59:48.673Z,1.27
2022-07-30T16:04:51.770Z,1.55
2022-07-30T16:10:02.257Z,1.10
2022-07-30T16:15:05.809Z,1.48
2022-07-30T16:20:10.197Z,1.13
2022-07-30T16:25:14.327Z,1.05
2022-07-30T16:30:17.136Z,1.20
2022-07-30T16:35:19.985Z,1.20
2022-07-30T16:40:24.272Z,1.20
2022-07-30T16:45:28.842Z,1.83
2022-07-30T16:50:31.962Z,1.85
2022-07-30T16:55:36.095Z,2.22
2022-07-30T17:00:39.346Z,1.48
2022-07-30T17:05:45.248Z,1.27
2022-07-30T17:10:52.338Z,1.35
2022-07-30T17:15:55.237Z,1.52
2022-07-30T17:20:58.035Z,1.88
2022-07-30T17:26:02.253Z,1.40
2022-07-30T17:31:06.180Z,1.25
2022-07-30T17:36:09.413Z,0.93
2022-07-30T17:41:13.862Z,1.52
2022-07-30T17:46:17.236Z,2.15
2022-07-30T17:51:20.139Z,1.42
2022-07-30T17:56:26.903Z,1.55
2022-07-30T18:01:32.564Z,1.73
2022-07-30T18:06:36.064Z,1.50
2022-07-30T18:11:40.371Z,1.13
2022-07-30T18:16:45.246Z,1.10
2022-07-30T18:21:48.039Z,1.33
2022-07-30T18:26:52.289Z,1.50
2022-07-30T18:31:55.021Z,1.27
2022-07-30T18:36:58.885Z,2.03
2022-07-30T18:42:03.698Z,1.30
2022-07-30T18:47:07.021Z,1.42
2022-07-30T18:52:09.957Z,1.35
2022-07-30T18:57:14.682Z,1.25
2022-07-30T19:02:20.570Z,1.42
2022-07-30T19:07:24.370Z,1.75
2022-07-30T19:12:32.801Z,1.38
2022-07-30T19:17:46.081Z,1.73
2022-07-30T19:22:49.779Z,3.05
2022-07-30T19:27:53.928Z,1.50
2022-07-30T19:33:02.746Z,1.77
2022-07-30T19:43:30.900Z,2.33
2022-07-30T19:48:37.394Z,2.35
2022-07-30T19:53:44.560Z,1.25
2022-07-30T19:58:49.647Z,1.48
2022-07-30T20:03:55.862Z,1.48
2022-07-30T20:09:04.504Z,1.45
2022-07-30T20:14:08.834Z,2.33
2022-07-30T20:19:15.744Z,2.25
2022-07-30T20:24:18.872Z,1.70
2022-07-30T20:29:23.189Z,1.88
2022-07-30T20:34:27.545Z,1.98
2022-07-30T20:39:30.597Z,1.42
2022-07-30T20:44:35.213Z,1.80
2022-07-30T20:49:38.969Z,1.55
2022-07-30T20:54:45.335Z,1.88
2022-07-30T20:59:49.631Z,1.75
2022-07-30T21:04:56.709Z,2.05
2022-07-30T21:10:02.498Z,2.30
2022-07-30T21:15:15.688Z,2.10
2022-07-30T21:20:28.006Z,1.48
2022-07-30T21:25:32.954Z,1.88
2022-07-30T21:30:37.603Z,1.48
2022-07-30T21:35:41.864Z,1.60
2022-07-30T21:40:45.775Z,2.50
2022-07-30T21:45:54.893Z,2.03
2022-07-30T21:50:58.509Z,2.40
2022-07-30T21:56:01.654Z,2.05
2022-07-30T22:06:30.507Z,1.73
2022-07-30T22:11:33.908Z,2.20
2022-07-30T22:16:47.103Z,2.15
2022-07-30T22:21:50.831Z,1.70
2022-07-30T22:26:54.051Z,2.08
2022-07-30T22:31:58.585Z,2.25
2022-07-30T22:37:02.583Z,2.45
2022-07-30T22:42:06.904Z,2.92
2022-07-30T22:47:21.094Z,1.98
2022-07-30T22:52:27.293Z,2.60
2022-07-30T22:57:37.992Z,2.47
2022-07-30T23:02:43.593Z,3.00
2022-07-30T23:07:52.467Z,2.33
2022-07-30T23:12:31.871Z,2.50
2022-07-30T23:12:56.446Z,2.42
2022-07-30T23:18:02.793Z,2.83
2022-07-30T23:23:05.576Z,2.20
2022-07-30T23:28:08.382Z,2.40
2022-07-30T23:33:12.524Z,2.47
2022-07-30T23:38:15.326Z,2.63
2022-07-30T23:43:18.730Z,2.67
2022-07-30T23:48:22.948Z,2.40
2022-07-30T23:53:26.609Z,3.85
2022-07-30T23:58:30.223Z,2.50
